CZBA weather

Burlington Executive
Burlington, Ontario, Canada

Public forecast

Using degrees Celsius for public forecast. Weather courtesy of forecast.io.

Closest aviation weather report (METAR) to Burlington Executive

Closest report is John C. Munro Hamilton International Airport, 16.5 nm (30.6 km) SSW. Retrieved 2019/11/13 08:00 UTC (45 minutes ago):

CYHM 130800Z 25004KT 15SM FEW019 BKN030 BKN040 M12/M14 A3026 RMK SC2SC4SC1 SLP266

Closest aviation forecast (TAF) to Burlington Executive

Closest forecast is John C. Munro Hamilton International Airport, 16.5 nm (30.6 km) SSW. Retrieved 2019/11/13 06:42 UTC (2 hours ago):

TAF TAF CYHM 130538Z 1306/1406 24007KT P6SM SCT020 BKN050 TEMPO 1306/1311 5SM -SHSN BKN020 FM131100 VRB03KT P6SM BKN030 FM131600 VRB03KT P6SM FEW030 BKN160 FM132200 VRB03KT 4SM -SN BKN015 OVC090 RMK NXT FCST BY 131200Z